createdAt,value
2023-03-02T00:01:08.395Z,24.73
2023-03-02T00:03:42.473Z,24.97
2023-03-02T00:06:17.510Z,25.17
2023-03-02T00:08:50.611Z,25.03
2023-03-02T00:11:23.800Z,26.00
2023-03-02T00:13:57.035Z,25.47
2023-03-02T00:16:30.652Z,25.17
2023-03-02T00:19:04.200Z,26.77
2023-03-02T00:21:38.573Z,27.00
2023-03-02T00:24:11.618Z,26.00
2023-03-02T00:26:44.897Z,26.33
2023-03-02T00:29:18.027Z,26.33
2023-03-02T00:31:51.251Z,26.00
2023-03-02T00:34:24.375Z,25.13
2023-03-02T00:36:58.820Z,25.87
2023-03-02T00:39:31.876Z,26.70
2023-03-02T00:42:05.231Z,25.43
2023-03-02T00:44:38.260Z,25.37
2023-03-02T00:47:11.345Z,25.37
2023-03-02T00:49:48.848Z,25.47
2023-03-02T00:52:23.468Z,25.93
2023-03-02T00:54:56.518Z,26.43
2023-03-02T00:57:29.666Z,24.73
2023-03-02T01:00:02.746Z,26.43
2023-03-02T01:02:35.993Z,25.67
2023-03-02T01:05:10.119Z,25.37
2023-03-02T01:07:44.546Z,25.93
2023-03-02T01:10:17.953Z,24.90
2023-03-02T01:12:51.011Z,26.00
2023-03-02T01:15:24.192Z,25.60
2023-03-02T01:17:57.220Z,26.37
2023-03-02T01:20:30.521Z,25.23
2023-03-02T01:23:05.086Z,25.87
2023-03-02T01:25:39.096Z,25.87
2023-03-02T01:28:12.119Z,25.00
2023-03-02T01:30:45.233Z,24.90
2023-03-02T01:33:18.284Z,26.03
2023-03-02T01:35:51.495Z,25.27
2023-03-02T01:38:26.080Z,24.53
2023-03-02T01:40:59.436Z,25.10
2023-03-02T01:43:32.548Z,24.77
2023-03-02T01:46:11.608Z,24.87
2023-03-02T01:48:50.369Z,25.80
2023-03-02T01:51:26.506Z,25.30
2023-03-02T01:54:06.078Z,25.73
2023-03-02T01:56:41.967Z,25.40
2023-03-02T01:59:20.220Z,25.23
2023-03-02T02:01:56.965Z,25.47
2023-03-02T02:04:32.164Z,26.70
2023-03-02T02:07:08.217Z,24.33
2023-03-02T02:09:47.413Z,27.03
2023-03-02T02:12:23.789Z,25.40
2023-03-02T02:15:00.705Z,26.30
2023-03-02T02:17:34.090Z,26.73
2023-03-02T02:20:21.048Z,25.17
2023-03-02T02:23:27.399Z,24.77
2023-03-02T02:26:18.508Z,25.30
2023-03-02T02:28:58.949Z,25.43
2023-03-02T02:31:39.271Z,25.93
2023-03-02T02:34:22.629Z,24.53
2023-03-02T02:37:00.634Z,25.03
2023-03-02T02:39:38.535Z,25.80
2023-03-02T02:42:17.056Z,24.97
2023-03-02T02:44:50.747Z,25.03
2023-03-02T02:47:24.040Z,25.90
2023-03-02T02:49:58.370Z,26.83
2023-03-02T02:52:31.483Z,24.67
2023-03-02T02:55:04.924Z,25.67
2023-03-02T02:57:39.564Z,26.13
2023-03-02T03:00:20.582Z,25.13
2023-03-02T03:02:58.658Z,25.37
2023-03-02T03:05:31.722Z,26.30
2023-03-02T03:08:10.844Z,26.13
2023-03-02T03:10:45.222Z,25.63
2023-03-02T03:13:19.620Z,26.53
2023-03-02T03:15:52.845Z,25.70
2023-03-02T03:18:25.890Z,27.00
2023-03-02T03:20:59.407Z,26.10
2023-03-02T03:23:32.721Z,26.57
2023-03-02T03:26:06.698Z,29.93
2023-03-02T03:28:41.130Z,26.47
2023-03-02T03:31:14.207Z,27.37
2023-03-02T03:33:47.271Z,26.43
2023-03-02T03:36:20.317Z,25.87
2023-03-02T03:38:53.364Z,25.43
2023-03-02T03:41:26.821Z,25.13
2023-03-02T03:44:01.504Z,25.90
2023-03-02T03:46:35.500Z,26.10
2023-03-02T03:49:08.862Z,25.63
2023-03-02T03:51:41.933Z,26.80
2023-03-02T03:54:15.356Z,25.70
2023-03-02T03:56:50.998Z,25.07
2023-03-02T03:59:27.135Z,25.77
2023-03-02T04:02:03.338Z,24.80
2023-03-02T04:04:37.042Z,25.63
2023-03-02T04:07:10.337Z,25.30
2023-03-02T04:09:43.938Z,24.17
2023-03-02T04:12:16.948Z,25.80
2023-03-02T04:14:51.320Z,23.67
2023-03-02T04:17:24.356Z,25.93
2023-03-02T04:19:57.536Z,24.47
2023-03-02T04:22:30.604Z,25.33
2023-03-02T04:25:05.118Z,26.17
2023-03-02T04:27:38.117Z,24.73
2023-03-02T04:30:14.910Z,24.03
2023-03-02T04:32:48.242Z,23.53
2023-03-02T04:35:21.949Z,23.73
2023-03-02T04:37:55.133Z,25.77
2023-03-02T04:40:28.461Z,24.97
2023-03-02T04:43:01.509Z,23.97
2023-03-02T04:45:35.940Z,25.63
2023-03-02T04:48:09.459Z,30.10
2023-03-02T04:50:42.561Z,33.83
2023-03-02T04:53:15.691Z,31.50
2023-03-02T04:55:49.170Z,29.93
2023-03-02T04:58:22.207Z,29.73
2023-03-02T05:01:03.626Z,29.37
2023-03-02T05:03:36.809Z,30.07
2023-03-02T05:06:10.248Z,29.97
2023-03-02T05:08:43.821Z,25.53
2023-03-02T05:11:29.853Z,26.77
2023-03-02T05:14:07.418Z,26.20
2023-03-02T05:16:43.473Z,25.17
2023-03-02T05:19:16.996Z,25.23
2023-03-02T05:21:50.129Z,25.97
2023-03-02T05:24:23.292Z,26.73
2023-03-02T05:26:56.350Z,26.90
2023-03-02T05:29:29.373Z,24.90
2023-03-02T05:32:03.884Z,26.23
2023-03-02T05:34:36.948Z,28.37
2023-03-02T05:37:09.959Z,27.73
2023-03-02T05:39:43.040Z,28.47
2023-03-02T05:42:16.115Z,27.80
2023-03-02T05:44:49.156Z,25.73
2023-03-02T05:47:23.532Z,26.53
2023-03-02T05:49:56.756Z,28.63
2023-03-02T05:52:29.829Z,27.87
2023-03-02T05:55:02.951Z,28.80
2023-03-02T05:57:36.024Z,26.43
2023-03-02T06:00:11.935Z,27.43
2023-03-02T06:02:46.596Z,26.07
2023-03-02T06:05:22.678Z,27.30
2023-03-02T06:07:56.136Z,26.20
2023-03-02T06:10:29.317Z,27.57
2023-03-02T06:13:02.406Z,26.37
2023-03-02T06:15:35.536Z,26.50
2023-03-02T06:18:12.318Z,26.23
2023-03-02T06:20:45.468Z,25.63
2023-03-02T06:23:18.484Z,27.93
2023-03-02T06:25:51.657Z,25.87
2023-03-02T06:28:25.431Z,27.23
2023-03-02T06:31:00.409Z,27.53
2023-03-02T06:33:34.813Z,27.13
2023-03-02T06:36:08.105Z,29.17
2023-03-02T06:38:41.311Z,28.50
2023-03-02T06:41:14.327Z,30.60
2023-03-02T06:43:47.826Z,29.70
2023-03-02T06:46:20.865Z,28.83
2023-03-02T06:48:55.279Z,29.43
2023-03-02T06:51:28.284Z,28.30
2023-03-02T06:54:01.543Z,28.93
2023-03-02T06:56:35.192Z,28.13
2023-03-02T06:59:08.378Z,28.17
2023-03-02T07:01:41.964Z,28.40
2023-03-02T07:04:16.520Z,26.23
2023-03-02T07:06:49.604Z,25.80
2023-03-02T07:09:23.213Z,26.50
2023-03-02T07:11:56.245Z,27.90
2023-03-02T07:14:29.265Z,27.87
2023-03-02T07:17:02.338Z,26.60
2023-03-02T07:19:40.706Z,26.93
2023-03-02T07:22:13.995Z,28.67
2023-03-02T07:24:47.049Z,28.33
2023-03-02T07:27:20.079Z,29.67
2023-03-02T07:29:53.142Z,30.03
2023-03-02T07:32:26.254Z,30.63
2023-03-02T07:35:00.762Z,28.50
2023-03-02T07:37:33.792Z,30.00
2023-03-02T07:40:08.552Z,28.17
2023-03-02T07:42:41.701Z,28.17
2023-03-02T07:45:16.807Z,28.47
2023-03-02T07:47:49.906Z,28.53
2023-03-02T07:50:24.275Z,27.13
2023-03-02T07:52:59.839Z,27.83
2023-03-02T07:55:33.069Z,28.83
2023-03-02T07:58:06.105Z,28.37
2023-03-02T08:00:41.777Z,26.67
2023-03-02T08:03:15.665Z,28.20
2023-03-02T08:05:50.084Z,25.67
2023-03-02T08:08:23.373Z,23.53
2023-03-02T08:10:56.361Z,25.60
2023-03-02T08:13:29.392Z,26.47
2023-03-02T08:16:03.880Z,24.97
2023-03-02T08:18:38.094Z,24.63
2023-03-02T08:21:18.551Z,26.30
2023-03-02T08:23:52.202Z,24.23
2023-03-02T08:26:25.334Z,24.43
2023-03-02T08:28:58.414Z,24.97
2023-03-02T08:31:32.026Z,24.80
2023-03-02T08:34:05.891Z,24.27
2023-03-02T08:36:41.081Z,23.27
2023-03-02T08:39:14.447Z,20.80
2023-03-02T08:41:47.476Z,20.50
2023-03-02T08:44:22.148Z,19.60
2023-03-02T08:46:55.573Z,19.47
2023-03-02T08:49:28.695Z,19.97
2023-03-02T08:52:03.093Z,19.63
2023-03-02T08:54:36.232Z,18.77
2023-03-02T08:57:12.708Z,19.50
2023-03-02T08:59:45.761Z,19.40
2023-03-02T09:02:18.875Z,20.77
2023-03-02T09:04:51.997Z,19.63
2023-03-02T09:07:26.472Z,19.67
2023-03-02T09:09:59.576Z,19.90
2023-03-02T09:12:32.623Z,20.23
2023-03-02T09:15:07.144Z,18.30
2023-03-02T09:17:40.171Z,18.30
2023-03-02T09:20:14.377Z,19.83
2023-03-02T09:22:50.863Z,18.90
2023-03-02T09:25:23.971Z,19.00
2023-03-02T09:27:57.017Z,19.53
2023-03-02T09:30:30.101Z,18.00
2023-03-02T09:33:03.384Z,17.93
2023-03-02T09:35:36.550Z,18.67
2023-03-02T09:38:12.888Z,18.47
2023-03-02T09:41:08.503Z,18.53
2023-03-02T09:43:49.796Z,17.90
2023-03-02T09:46:27.781Z,18.00
2023-03-02T09:49:15.467Z,17.33
2023-03-02T09:52:01.692Z,16.60
2023-03-02T09:54:38.062Z,18.10
2023-03-02T09:57:22.685Z,17.90
2023-03-02T10:00:09.446Z,17.50
2023-03-02T10:02:52.368Z,17.83
2023-03-02T10:05:30.746Z,17.60
2023-03-02T10:08:03.870Z,17.57
2023-03-02T10:10:45.361Z,16.87
2023-03-02T10:13:25.421Z,17.63
2023-03-02T10:16:14.190Z,17.30
2023-03-02T10:18:52.254Z,17.27
2023-03-02T10:21:31.055Z,16.33
2023-03-02T10:24:16.248Z,16.57
2023-03-02T10:26:54.970Z,18.27
2023-03-02T10:29:51.239Z,17.07
2023-03-02T10:32:26.753Z,16.63
2023-03-02T10:35:03.805Z,17.23
2023-03-02T10:37:36.972Z,15.33
2023-03-02T10:40:27.449Z,16.23
2023-03-02T10:43:02.258Z,16.80
2023-03-02T10:45:35.569Z,16.27
2023-03-02T10:48:12.463Z,16.10
2023-03-02T10:50:45.802Z,15.93
2023-03-02T10:53:19.886Z,15.90
2023-03-02T10:55:54.754Z,15.60
2023-03-02T10:58:34.074Z,16.03
2023-03-02T11:01:18.374Z,15.75
2023-03-02T11:03:59.156Z,15.30
2023-03-02T11:06:33.467Z,15.32
2023-03-02T11:09:09.571Z,15.05
2023-03-02T11:11:51.311Z,16.23
2023-03-02T11:14:25.879Z,13.90
2023-03-02T11:17:02.426Z,14.75
2023-03-02T11:19:38.910Z,15.05
2023-03-02T11:22:27.198Z,14.20
2023-03-02T11:25:04.917Z,15.00
2023-03-02T11:27:42.639Z,13.52
2023-03-02T11:30:22.691Z,15.82
2023-03-02T11:33:03.799Z,14.48
2023-03-02T11:35:44.773Z,15.00
2023-03-02T11:38:24.913Z,15.32
2023-03-02T11:41:03.123Z,14.50
2023-03-02T11:43:36.219Z,14.38
2023-03-02T11:46:26.180Z,15.05
2023-03-02T11:49:05.602Z,14.07
2023-03-02T11:51:50.093Z,14.40
2023-03-02T11:54:41.806Z,15.05
2023-03-02T11:57:24.298Z,14.38
2023-03-02T11:59:59.419Z,14.02
2023-03-02T12:02:33.861Z,14.43
2023-03-02T12:05:25.332Z,14.45
2023-03-02T12:08:00.412Z,13.93
2023-03-02T12:10:39.765Z,13.77
2023-03-02T12:13:18.681Z,13.90
2023-03-02T12:15:52.364Z,14.15
2023-03-02T12:18:51.139Z,12.95
2023-03-02T12:21:27.136Z,13.82
2023-03-02T12:24:04.040Z,13.52
2023-03-02T12:26:38.915Z,13.95
2023-03-02T12:29:25.156Z,13.48
2023-03-02T12:31:58.596Z,13.05
2023-03-02T12:34:39.076Z,12.73
2023-03-02T12:37:19.968Z,14.27
2023-03-02T12:40:34.251Z,12.40
2023-03-02T12:43:31.362Z,14.13
2023-03-02T12:46:31.876Z,14.00
2023-03-02T12:49:35.390Z,13.90
2023-03-02T12:52:27.160Z,13.88
2023-03-02T12:55:03.229Z,13.93
2023-03-02T12:57:39.740Z,12.15
2023-03-02T13:00:19.003Z,13.75
2023-03-02T13:02:55.118Z,13.80
2023-03-02T13:05:31.551Z,13.23
2023-03-02T13:08:08.806Z,12.77
2023-03-02T13:10:44.052Z,12.98
2023-03-02T13:13:20.357Z,13.73
2023-03-02T13:15:57.297Z,12.30
2023-03-02T13:18:33.790Z,13.45
2023-03-02T13:21:07.977Z,12.93
2023-03-02T13:23:47.326Z,12.77
2023-03-02T13:26:28.455Z,13.05
2023-03-02T13:29:04.178Z,13.13
2023-03-02T13:31:37.669Z,12.73
2023-03-02T13:34:23.170Z,12.85
2023-03-02T13:36:56.393Z,12.20
2023-03-02T13:39:32.580Z,12.93
2023-03-02T13:42:05.871Z,12.45
2023-03-02T13:44:38.972Z,13.75
2023-03-02T13:47:23.815Z,12.52
2023-03-02T13:50:08.620Z,12.90
2023-03-02T13:52:41.904Z,12.43
2023-03-02T13:55:19.184Z,12.55
2023-03-02T13:57:56.149Z,10.85
2023-03-02T14:00:34.428Z,12.43
2023-03-02T14:03:23.330Z,11.55
2023-03-02T14:05:58.641Z,12.25
2023-03-02T14:08:32.315Z,12.27
2023-03-02T14:11:07.763Z,12.00
2023-03-02T14:13:45.137Z,11.65
2023-03-02T14:16:19.035Z,11.05
2023-03-02T14:18:53.438Z,11.18
2023-03-02T14:21:27.477Z,11.50
2023-03-02T14:24:00.660Z,11.60
2023-03-02T14:26:38.194Z,10.95
2023-03-02T14:29:23.219Z,11.57
2023-03-02T14:31:57.494Z,11.55
2023-03-02T14:34:30.784Z,12.02
2023-03-02T14:37:07.476Z,11.40
2023-03-02T14:39:43.392Z,11.73
2023-03-02T14:42:21.236Z,10.98
2023-03-02T14:44:54.421Z,11.45
2023-03-02T14:47:27.597Z,11.68
2023-03-02T14:50:00.623Z,10.77
2023-03-02T14:52:38.387Z,11.80
2023-03-02T14:55:18.350Z,11.80
2023-03-02T14:57:57.404Z,11.73
2023-03-02T15:00:30.600Z,10.80
2023-03-02T15:03:03.761Z,10.80
2023-03-02T15:05:36.845Z,10.68
2023-03-02T15:08:13.700Z,11.45
2023-03-02T15:10:47.417Z,11.07
2023-03-02T15:13:22.529Z,11.20
2023-03-02T15:15:55.649Z,10.63
2023-03-02T15:18:28.789Z,10.52
2023-03-02T15:21:01.846Z,11.23
2023-03-02T15:23:35.164Z,11.80
2023-03-02T15:26:08.216Z,11.05
2023-03-02T15:28:42.955Z,9.88
2023-03-02T15:31:18.142Z,10.75
2023-03-02T15:33:52.119Z,11.35
2023-03-02T15:36:26.405Z,10.32
2023-03-02T15:38:59.621Z,9.23
2023-03-02T15:41:32.842Z,9.38
2023-03-02T15:44:07.686Z,10.43
2023-03-02T15:46:40.922Z,10.25
2023-03-02T15:49:14.061Z,10.90
2023-03-02T15:51:47.124Z,9.98
2023-03-02T15:54:20.468Z,9.60
2023-03-02T15:56:53.633Z,10.35
2023-03-02T15:59:30.628Z,11.23
2023-03-02T16:02:03.702Z,11.23
2023-03-02T16:04:36.780Z,10.82
2023-03-02T16:07:09.918Z,10.25
2023-03-02T16:09:45.296Z,14.05
2023-03-02T16:12:20.424Z,16.63
2023-03-02T16:14:54.837Z,17.02
2023-03-02T16:17:28.022Z,16.88
2023-03-02T16:20:01.038Z,18.27
2023-03-02T16:22:34.116Z,18.02
2023-03-02T16:25:07.816Z,16.95
2023-03-02T16:27:40.866Z,18.83
2023-03-02T16:30:16.400Z,17.65
2023-03-02T16:32:49.441Z,18.25
2023-03-02T16:35:22.811Z,18.58
2023-03-02T16:37:56.290Z,18.33
2023-03-02T16:40:29.951Z,17.98
2023-03-02T16:43:03.009Z,19.02
2023-03-02T16:45:37.984Z,18.75
2023-03-02T16:48:11.515Z,19.25
2023-03-02T16:50:44.888Z,19.65
2023-03-02T16:53:19.406Z,19.27
2023-03-02T16:55:52.428Z,18.60
2023-03-02T16:58:25.952Z,18.13
2023-03-02T17:01:00.977Z,19.95
2023-03-02T17:03:34.251Z,19.33
2023-03-02T17:06:08.922Z,18.83
2023-03-02T17:08:42.726Z,18.65
2023-03-02T17:11:15.940Z,19.48
2023-03-02T17:13:49.024Z,17.77
2023-03-02T17:16:24.859Z,20.55
2023-03-02T17:18:57.904Z,18.65
2023-03-02T17:21:30.959Z,19.80
2023-03-02T17:24:04.185Z,20.88
2023-03-02T17:26:37.443Z,19.58
2023-03-02T17:29:10.461Z,19.42
2023-03-02T17:31:44.872Z,21.42
2023-03-02T17:34:17.945Z,24.75
2023-03-02T17:36:51.021Z,25.05
2023-03-02T17:39:24.601Z,22.70
2023-03-02T17:41:57.635Z,24.38
2023-03-02T17:44:33.008Z,23.63
2023-03-02T17:47:08.291Z,22.90
2023-03-02T17:49:43.657Z,23.67
2023-03-02T17:52:19.083Z,23.13
2023-03-02T17:54:54.093Z,22.45
2023-03-02T17:57:27.959Z,24.05
2023-03-02T18:00:01.151Z,24.95
2023-03-02T18:02:35.990Z,24.80
2023-03-02T18:05:11.094Z,23.50
2023-03-02T18:07:44.142Z,23.83
2023-03-02T18:10:17.373Z,24.17
2023-03-02T18:12:52.768Z,24.33
2023-03-02T18:15:29.098Z,24.83
2023-03-02T18:18:03.720Z,23.93
2023-03-02T18:20:37.170Z,25.17
2023-03-02T18:23:12.415Z,24.43
2023-03-02T18:25:45.444Z,24.47
2023-03-02T18:28:18.611Z,24.43
2023-03-02T18:30:51.809Z,23.17
2023-03-02T18:33:26.232Z,25.57
2023-03-02T18:36:00.508Z,26.90
2023-03-02T18:38:34.406Z,27.13
2023-03-02T18:41:09.161Z,26.97
2023-03-02T18:43:43.312Z,30.57
2023-03-02T18:46:23.461Z,28.10
2023-03-02T18:49:00.495Z,28.00
2023-03-02T18:51:33.587Z,26.07
2023-03-02T18:54:07.555Z,28.47
2023-03-02T18:56:40.742Z,27.57
2023-03-02T18:59:13.998Z,28.37
2023-03-02T19:01:47.594Z,26.70
2023-03-02T19:04:26.254Z,27.43
2023-03-02T19:07:00.806Z,29.87
2023-03-02T19:09:34.667Z,30.13
2023-03-02T19:12:07.978Z,27.60
2023-03-02T19:14:43.394Z,27.47
2023-03-02T19:17:16.576Z,27.07
2023-03-02T19:19:51.243Z,28.50
2023-03-02T19:22:24.316Z,28.10
2023-03-02T19:24:57.356Z,26.27
2023-03-02T19:27:30.394Z,26.00
2023-03-02T19:30:03.641Z,27.07
2023-03-02T19:32:36.739Z,29.03
2023-03-02T19:35:14.532Z,28.27
2023-03-02T19:37:47.748Z,28.63
2023-03-02T19:40:24.676Z,29.07
2023-03-02T19:42:58.153Z,30.07
2023-03-02T19:45:35.618Z,29.20
2023-03-02T19:48:13.524Z,31.90
2023-03-02T19:50:48.282Z,30.07
2023-03-02T19:53:21.789Z,29.57
2023-03-02T19:55:54.861Z,30.47
2023-03-02T19:58:28.553Z,30.00
2023-03-02T20:01:01.793Z,29.90
2023-03-02T20:03:34.864Z,30.10
2023-03-02T20:06:09.428Z,31.93
2023-03-02T20:08:42.472Z,31.83
2023-03-02T20:11:15.668Z,31.00
2023-03-02T20:13:50.592Z,28.47
2023-03-02T20:16:24.902Z,30.20
2023-03-02T20:18:58.336Z,32.37
2023-03-02T20:21:34.555Z,30.27
2023-03-02T20:24:08.243Z,30.53
2023-03-02T20:26:41.587Z,31.67
2023-03-02T20:29:16.175Z,31.00
2023-03-02T20:31:49.629Z,30.27
2023-03-02T20:34:22.856Z,29.30
2023-03-02T20:36:57.430Z,31.93
2023-03-02T20:39:33.921Z,34.43
2023-03-02T20:42:08.224Z,35.00
2023-03-02T20:44:41.763Z,33.37
2023-03-02T20:47:17.129Z,32.57
2023-03-02T20:49:50.313Z,32.30
2023-03-02T20:52:25.009Z,34.60
2023-03-02T20:54:58.198Z,34.00
2023-03-02T20:57:31.282Z,32.93
2023-03-02T21:00:20.631Z,30.67
2023-03-02T21:02:53.802Z,30.83
2023-03-02T21:05:29.223Z,29.83
2023-03-02T21:08:03.947Z,30.77
2023-03-02T21:10:39.637Z,30.20
2023-03-02T21:13:13.266Z,31.00
2023-03-02T21:15:46.737Z,30.80
2023-03-02T21:18:19.845Z,32.97
2023-03-02T21:20:52.934Z,31.90
2023-03-02T21:23:27.787Z,31.30
2023-03-02T21:26:00.899Z,32.37
2023-03-02T21:28:33.968Z,33.30
2023-03-02T21:31:07.426Z,32.50
2023-03-02T21:33:40.598Z,32.50
2023-03-02T21:36:18.284Z,32.40
2023-03-02T21:38:53.956Z,31.77
2023-03-02T21:41:27.298Z,32.07
2023-03-02T21:44:00.368Z,32.40
2023-03-02T21:46:36.552Z,34.23
2023-03-02T21:49:09.680Z,35.90
2023-03-02T21:51:42.806Z,35.23
2023-03-02T21:54:17.392Z,33.57
2023-03-02T21:56:50.534Z,31.30
2023-03-02T21:59:23.606Z,32.77
2023-03-02T22:01:56.666Z,32.87
2023-03-02T22:04:30.338Z,30.83
2023-03-02T22:07:03.368Z,31.40
2023-03-02T22:09:37.853Z,31.60
2023-03-02T22:12:14.587Z,30.77
2023-03-02T22:14:47.645Z,31.03
2023-03-02T22:17:24.814Z,30.30
2023-03-02T22:19:58.009Z,31.70
2023-03-02T22:22:31.085Z,32.27
2023-03-02T22:25:17.608Z,30.23
2023-03-02T22:27:50.657Z,31.43
2023-03-02T22:30:25.108Z,31.77
2023-03-02T22:32:58.234Z,30.33
2023-03-02T22:35:31.338Z,31.63
2023-03-02T22:38:15.251Z,30.77
2023-03-02T22:40:49.680Z,32.00
2023-03-02T22:43:29.306Z,31.60
2023-03-02T22:46:15.569Z,31.97
2023-03-02T22:48:51.607Z,32.40
2023-03-02T22:51:27.934Z,32.93
2023-03-02T22:54:02.409Z,31.47
2023-03-02T22:56:38.609Z,33.73
2023-03-02T22:59:21.542Z,31.83
2023-03-02T23:01:55.705Z,33.00
2023-03-02T23:04:33.242Z,32.10
2023-03-02T23:07:17.656Z,29.10
2023-03-02T23:09:50.734Z,30.07
2023-03-02T23:12:28.454Z,28.83
2023-03-02T23:15:01.796Z,29.37
2023-03-02T23:17:38.769Z,30.40
2023-03-02T23:20:15.570Z,30.47
2023-03-02T23:22:50.028Z,28.93
2023-03-02T23:25:23.041Z,29.07
2023-03-02T23:27:57.451Z,29.70
2023-03-02T23:30:30.569Z,29.57
2023-03-02T23:33:03.881Z,30.67
2023-03-02T23:35:37.197Z,29.43
2023-03-02T23:38:10.356Z,30.20
2023-03-02T23:40:43.677Z,29.73
2023-03-02T23:43:18.109Z,30.13
2023-03-02T23:45:51.354Z,31.10
2023-03-02T23:48:24.494Z,32.00
2023-03-02T23:50:57.761Z,33.93
2023-03-02T23:53:30.842Z,31.53
2023-03-02T23:56:04.042Z,33.73
2023-03-02T23:58:38.861Z,31.37
